Time;durP1;ratioP1;P1;durP2;ratioP2;P2;SDS_P1;SDS_P2;PMS_P1;PMS_P2;Temp;Humidity;BMP_temperature;BMP_pressure;BME280_temperature;BME280_humidity;BME280_pressure;Samples;Min_cycle;Max_cycle;Signal;HPM_P1;HPM_P2
2022/08/05 00:00:17;;;;;;;4.20;3.20;;;;;;;25.00;38.66;99437.19;5031544;28;20076;-74
2022/08/05 00:02:43;;;;;;;5.88;4.15;;;;;;;25.28;38.80;99484.38;5029987;28;20025;-75
2022/08/05 00:05:09;;;;;;;4.13;3.38;;;;;;;24.91;39.19;99436.09;5031512;28;20517;-75
2022/08/05 00:07:34;;;;;;;4.35;3.17;;;;;;;25.24;39.42;99499.50;5030010;28;20026;-74
2022/08/05 00:09:59;;;;;;;4.28;3.38;;;;;;;25.16;39.18;99488.47;5031260;28;20025;-75
2022/08/05 00:12:25;;;;;;;3.78;3.25;;;;;;;25.17;39.38;99496.28;5031300;28;20036;-74
2022/08/05 00:14:50;;;;;;;4.88;3.58;;;;;;;24.84;39.31;99440.16;5031175;28;20496;-74
2022/08/05 00:17:16;;;;;;;4.68;3.70;;;;;;;25.09;39.30;99485.25;5031133;28;20192;-74
2022/08/05 00:19:41;;;;;;;3.70;3.40;;;;;;;24.88;39.12;99442.03;5031354;28;20029;-74
2022/08/05 00:22:07;;;;;;;3.80;3.33;;;;;;;25.08;39.26;99479.03;5031361;28;20028;-74
2022/08/05 00:24:32;;;;;;;7.60;3.83;;;;;;;25.01;39.49;99476.63;5029854;28;20041;-74
2022/08/05 00:26:59;;;;;;;5.32;4.03;;;;;;;25.10;39.54;99494.97;5031366;28;20478;-75
2022/08/05 00:29:24;;;;;;;4.97;3.80;;;;;;;24.78;39.79;99439.38;5029841;28;20029;-74
2022/08/05 00:31:50;;;;;;;4.35;3.35;;;;;;;25.01;39.59;99483.91;5031325;28;20021;-75
2022/08/05 00:34:15;;;;;;;3.47;3.17;;;;;;;24.54;39.83;99433.75;5031103;28;20021;-74
2022/08/05 00:36:41;;;;;;;4.05;3.58;;;;;;;24.93;40.04;99495.25;5031251;28;20029;-74
2022/08/05 00:39:08;;;;;;;4.10;3.72;;;;;;;24.47;40.07;99443.16;5031508;28;20128;-74
2022/08/05 00:41:34;;;;;;;3.90;3.30;;;;;;;24.82;39.90;99497.16;5035083;28;20025;-74
2022/08/05 00:44:00;;;;;;;4.80;3.80;;;;;;;24.77;40.06;99489.06;5035025;28;20395;-74
2022/08/05 00:46:25;;;;;;;4.00;3.47;;;;;;;24.45;40.28;99445.34;5034916;28;20025;-75
2022/08/05 00:48:51;;;;;;;5.55;3.72;;;;;;;24.79;40.19;99500.41;5034835;28;20036;-74
2022/08/05 00:51:18;;;;;;;3.95;3.60;;;;;;;24.77;40.30;99494.47;5035059;28;20445;-74
2022/08/05 00:53:44;;;;;;;3.65;3.30;;;;;;;24.73;40.56;99506.88;5034803;28;20030;-74
2022/08/05 00:56:09;;;;;;;4.72;3.80;;;;;;;24.52;40.84;99470.16;5034843;28;20018;-74
2022/08/05 00:58:36;;;;;;;6.80;3.70;;;;;;;24.64;40.64;99495.81;5033350;28;20115;-74
2022/08/05 01:01:01;;;;;;;5.32;4.18;;;;;;;24.63;40.89;99499.59;5034614;28;20075;-74
2022/08/05 01:03:28;;;;;;;4.70;3.60;;;;;;;24.09;40.86;99407.53;5034562;28;20103;-74
2022/08/05 01:05:54;;;;;;;3.85;3.55;;;;;;;24.26;41.15;99445.84;5034521;28;20026;-74
2022/08/05 01:08:19;;;;;;;5.05;3.45;;;;;;;24.30;41.26;99456.94;5033101;28;20025;-74
2022/08/05 01:10:53;;;;;;;6.35;3.70;;;;;;;24.42;41.60;99484.47;5034222;28;20017;-74
2022/08/05 01:13:27;;;;;;;4.13;3.60;;;;;;;24.24;41.63;99468.78;5033205;28;20033;-74
2022/08/05 01:15:58;;;;;;;4.43;4.13;;;;;;;24.28;41.55;99484.19;5034398;28;20405;-75
2022/08/05 01:18:30;;;;;;;5.10;3.78;;;;;;;24.24;41.88;99474.19;5034208;28;20115;-74
2022/08/05 01:21:33;;;;;;;6.35;3.90;;;;;;;24.28;42.07;99483.38;5034245;28;20029;-74
2022/08/05 01:24:29;;;;;;;6.45;4.03;;;;;;;24.20;42.42;99490.09;5033902;28;20017;-74
2022/08/05 01:27:12;;;;;;;4.03;3.63;;;;;;;24.21;42.18;99482.81;5034100;28;20033;-74
2022/08/05 01:29:49;;;;;;;6.82;4.03;;;;;;;24.08;42.55;99468.78;5034108;28;20037;-74
2022/08/05 01:32:20;;;;;;;4.47;4.13;;;;;;;24.16;42.26;99480.09;5034080;28;20486;-74
2022/08/05 01:35:07;;;;;;;5.82;3.95;;;;;;;24.11;42.55;99469.31;5033957;28;20417;-74
2022/08/05 01:37:42;;;;;;;6.05;3.95;;;;;;;24.21;42.76;99494.41;5033979;28;20104;-74
2022/08/05 01:40:11;;;;;;;4.10;3.70;;;;;;;24.19;42.71;99482.28;5034019;28;20025;-74
2022/08/05 01:42:39;;;;;;;5.43;3.95;;;;;;;24.05;42.75;99465.81;5033821;28;20486;-74
2022/08/05 01:45:06;;;;;;;4.03;3.72;;;;;;;23.77;42.72;99418.53;5032303;28;20076;-74
2022/08/05 01:47:34;;;;;;;5.47;4.22;;;;;;;24.13;42.76;99478.75;5032304;28;20029;-74
2022/08/05 01:50:02;;;;;;;7.50;4.22;;;;;;;23.81;43.03;99446.63;5033194;28;20052;-74
2022/08/05 01:52:30;;;;;;;6.28;4.28;;;;;;;23.88;43.09;99462.53;5033576;28;20569;-74
2022/08/05 01:55:00;;;;;;;5.82;4.15;;;;;;;24.04;43.55;99489.28;5033714;28;20025;-74
2022/08/05 01:57:31;;;;;;;5.13;3.95;;;;;;;23.73;43.70;99453.31;5033508;28;20029;-74
2022/08/05 02:00:00;;;;;;;5.25;4.22;;;;;;;23.58;43.69;99409.34;5033314;28;20060;-75
2022/08/05 02:02:28;;;;;;;6.10;4.32;;;;;;;23.91;43.71;99470.91;5033691;28;20095;-74
2022/08/05 02:04:57;;;;;;;4.93;4.40;;;;;;;23.96;44.00;99492.50;5033383;28;20029;-74
2022/08/05 02:07:22;;;;;;;6.22;3.97;;;;;;;23.65;43.95;99431.47;5033290;28;20410;-74
2022/08/05 02:09:49;;;;;;;5.13;3.97;;;;;;;24.02;43.88;99487.91;5033415;28;20026;-74
2022/08/05 02:12:30;;;;;;;4.63;4.15;;;;;;;24.01;43.89;99484.41;5033167;28;20025;-74
2022/08/05 02:15:13;;;;;;;4.65;4.03;;;;;;;23.99;44.11;99485.75;5033357;28;20529;-74
2022/08/05 02:17:48;;;;;;;8.85;4.35;;;;;;;23.98;44.23;99481.44;5032969;28;20049;-74
2022/08/05 02:20:18;;;;;;;5.85;4.30;;;;;;;23.84;44.00;99469.53;5031719;28;20021;-75
2022/08/05 02:22:47;;;;;;;6.25;4.40;;;;;;;23.54;44.34;99424.41;5033115;28;20022;-74
2022/08/05 02:25:25;;;;;;;6.22;4.43;;;;;;;23.94;44.36;99480.34;5033261;28;20026;-75
2022/08/05 02:27:53;;;;;;;4.72;4.10;;;;;;;23.63;44.48;99436.31;5032992;28;20063;-74
2022/08/05 02:30:22;;;;;;;5.75;4.32;;;;;;;23.66;44.23;99433.09;5032978;28;20419;-74
2022/08/05 02:32:53;;;;;;;8.40;5.18;;;;;;;23.82;44.41;99458.22;5032933;28;20030;-74
2022/08/05 02:35:21;;;;;;;6.25;4.55;;;;;;;23.60;44.62;99423.38;5032893;28;20497;-74
2022/08/05 02:37:49;;;;;;;5.32;4.30;;;;;;;23.59;44.72;99433.34;5032971;28;20029;-74
2022/08/05 02:40:16;;;;;;;5.22;4.40;;;;;;;23.94;44.66;99483.84;5032842;28;20029;-75
2022/08/05 02:42:43;;;;;;;5.40;4.47;;;;;;;23.66;44.67;99439.28;5032802;28;20025;-75
2022/08/05 02:45:10;;;;;;;4.50;4.10;;;;;;;23.74;45.03;99449.53;5031503;28;20018;-74
2022/08/05 02:47:36;;;;;;;4.75;3.97;;;;;;;23.80;44.86;99466.56;5032673;28;20021;-74
2022/08/05 02:50:05;;;;;;;4.93;4.30;;;;;;;23.90;45.05;99480.06;5031400;28;20056;-74
2022/08/05 02:52:32;;;;;;;9.50;4.25;;;;;;;23.48;45.06;99412.78;5031127;28;20027;-74
2022/08/05 02:55:01;;;;;;;5.38;4.43;;;;;;;23.69;45.21;99443.34;5032607;28;20030;-74
2022/08/05 02:57:28;;;;;;;4.47;3.97;;;;;;;23.75;45.03;99461.94;5032517;28;20023;-74
2022/08/05 02:59:54;;;;;;;4.53;4.13;;;;;;;23.87;45.16;99480.59;5032517;28;20028;-75
2022/08/05 03:02:26;;;;;;;5.22;4.60;;;;;;;23.80;45.25;99481.94;5031685;28;20490;-74
2022/08/05 03:04:53;;;;;;;6.68;4.93;;;;;;;23.80;45.23;99482.75;5031081;28;20053;-75
2022/08/05 03:07:20;;;;;;;5.05;4.65;;;;;;;23.81;45.35;99484.38;5032119;28;20021;-74
2022/08/05 03:09:47;;;;;;;5.10;4.60;;;;;;;23.46;45.42;99429.22;5032100;28;20056;-74
2022/08/05 03:12:51;;;;;;;6.70;4.93;;;;;;;23.75;45.65;99474.63;5032037;28;20453;-74
2022/08/05 03:15:17;;;;;;;7.78;4.68;;;;;;;23.72;45.75;99477.84;4991094;28;20049;-74
2022/08/05 03:17:42;;;;;;;6.63;5.03;;;;;;;23.60;45.68;99455.72;4990400;28;20134;-74
2022/08/05 03:20:08;;;;;;;7.13;4.88;;;;;;;23.52;45.65;99440.84;5010010;28;20038;-74
2022/08/05 03:22:34;;;;;;;5.22;4.80;;;;;;;23.80;45.63;99479.25;5031843;28;20022;-74
2022/08/05 03:25:00;;;;;;;6.85;5.05;;;;;;;23.80;45.56;99488.16;5032032;28;20462;-74
2022/08/05 03:27:26;;;;;;;5.20;4.18;;;;;;;23.82;45.37;99501.34;5031819;28;20056;-74
2022/08/05 03:29:51;;;;;;;5.00;4.50;;;;;;;23.72;45.49;99462.47;5031686;28;20479;-75
2022/08/05 03:32:18;;;;;;;6.90;4.38;;;;;;;23.72;45.64;99470.56;5031567;28;20026;-75
2022/08/05 03:34:44;;;;;;;5.93;5.00;;;;;;;23.88;45.40;99489.50;5031817;28;20506;-74
2022/08/05 03:37:10;;;;;;;6.45;5.50;;;;;;;23.87;45.47;99488.69;5030483;28;20063;-74
2022/08/05 03:39:36;;;;;;;6.35;4.68;;;;;;;23.86;45.63;99489.78;5031755;28;20061;-74
2022/08/05 03:42:02;;;;;;;6.28;5.15;;;;;;;23.85;45.66;99487.34;5031602;28;20048;-74
2022/08/05 03:44:27;;;;;;;8.20;4.50;;;;;;;23.75;45.71;99480.81;5031757;28;20029;-74
2022/08/05 03:46:53;;;;;;;6.43;5.10;;;;;;;23.26;45.80;99409.50;5031590;28;20095;-74
2022/08/05 03:49:18;;;;;;;6.90;5.18;;;;;;;23.77;45.84;99488.66;5031403;28;20034;-74
2022/08/05 03:51:48;;;;;;;6.90;4.35;;;;;;;23.80;46.03;99495.41;5031286;28;20026;-74
2022/08/05 03:54:22;;;;;;;6.00;4.38;;;;;;;23.82;46.15;99496.78;5031304;28;20471;-74
2022/08/05 03:56:48;;;;;;;5.60;4.82;;;;;;;23.74;46.12;99484.59;5031362;28;20033;-74
2022/08/05 03:59:18;;;;;;;6.15;5.55;;;;;;;23.53;46.44;99452.44;5031508;28;20061;-74
2022/08/05 04:01:47;;;;;;;6.97;4.40;;;;;;;23.44;46.57;99431.38;5031497;28;20487;-75
2022/08/05 04:04:16;;;;;;;7.78;5.50;;;;;;;23.69;46.40;99465.72;5030123;28;20017;-74
2022/08/05 04:06:43;;;;;;;7.88;5.68;;;;;;;23.57;46.52;99454.34;5030089;28;20045;-74
2022/08/05 04:09:08;;;;;;;6.97;5.38;;;;;;;23.49;46.88;99437.84;5031333;28;20100;-74
2022/08/05 04:11:35;;;;;;;6.45;5.30;;;;;;;23.32;46.96;99422.72;5031337;28;20460;-74
2022/08/05 04:14:01;;;;;;;7.15;4.93;;;;;;;23.46;46.88;99433.81;5034611;28;20544;-74
2022/08/05 04:16:27;;;;;;;5.85;5.35;;;;;;;23.84;46.72;99491.94;5037820;28;20048;-74
2022/08/05 04:18:53;;;;;;;7.78;5.07;;;;;;;23.88;47.03;99487.63;5037841;28;20406;-74
2022/08/05 04:21:18;;;;;;;10.27;5.97;;;;;;;23.90;47.07;99487.34;5036534;28;20021;-74
2022/08/05 04:23:44;;;;;;;8.35;5.72;;;;;;;23.86;47.17;99487.06;5037823;28;20058;-74
2022/08/05 04:26:10;;;;;;;7.28;5.35;;;;;;;23.90;47.21;99492.75;5037828;28;20057;-74
2022/08/05 04:28:35;;;;;;;8.77;5.40;;;;;;;23.51;47.30;99417.66;5037712;28;20425;-74
2022/08/05 04:31:01;;;;;;;7.15;5.47;;;;;;;23.95;47.31;99482.78;5037592;28;20032;-74
2022/08/05 04:33:27;;;;;;;7.95;5.80;;;;;;;23.99;47.21;99483.06;5037570;28;20036;-74
2022/08/05 04:35:52;;;;;;;8.38;5.35;;;;;;;23.70;47.42;99434.97;5037603;28;20056;-74
2022/08/05 04:38:18;;;;;;;6.25;5.35;;;;;;;24.19;47.01;99483.09;5037673;28;20576;-74
2022/08/05 04:40:43;;;;;;;6.07;5.32;;;;;;;23.69;47.19;99403.72;5037764;28;20068;-74
2022/08/05 04:43:09;;;;;;;8.93;5.75;;;;;;;24.21;47.20;99466.63;5037896;28;20109;-74
2022/08/05 04:45:35;;;;;;;6.53;5.78;;;;;;;24.27;46.95;99469.09;5037833;28;20104;-74
2022/08/05 04:48:08;;;;;;;7.22;5.28;;;;;;;24.05;47.00;99434.25;5037598;28;20037;-74
2022/08/05 04:50:45;;;;;;;9.48;6.22;;;;;;;24.39;47.03;99474.22;5037600;28;20490;-74
2022/08/05 04:53:12;;;;;;;6.70;6.10;;;;;;;24.20;46.48;99428.03;5037498;28;20033;-74
2022/08/05 04:55:39;;;;;;;8.82;6.25;;;;;;;24.60;46.69;99467.75;5037626;28;20025;-74
2022/08/05 04:58:06;;;;;;;5.95;5.35;;;;;;;24.69;46.28;99468.81;5036246;28;20029;-74
2022/08/05 05:00:34;;;;;;;7.15;5.07;;;;;;;24.75;46.29;99460.72;5037539;28;20060;-74
2022/08/05 05:02:59;;;;;;;5.68;4.72;;;;;;;24.67;46.01;99443.16;5037434;28;20104;-74
2022/08/05 05:05:25;;;;;;;6.50;4.88;;;;;;;24.58;45.91;99424.03;5037409;28;20132;-74
2022/08/05 05:07:50;;;;;;;6.93;4.93;;;;;;;24.55;45.93;99396.75;5036066;28;20395;-74
2022/08/05 05:10:16;;;;;;;7.93;4.90;;;;;;;24.99;45.56;99459.06;5035857;28;20504;-75
2022/08/05 05:12:41;;;;;;;8.18;4.80;;;;;;;24.85;45.12;99410.19;5037310;28;20533;-74
2022/08/05 05:15:07;;;;;;;7.18;4.88;;;;;;;25.00;44.97;99425.56;5037368;28;20450;-74
2022/08/05 05:17:38;;;;;;;10.45;5.22;;;;;;;25.27;44.42;99458.44;5037076;28;20041;-74
2022/08/05 05:20:04;;;;;;;7.67;4.77;;;;;;;25.35;44.02;99470.59;5036170;28;20048;-74
2022/08/05 05:22:30;;;;;;;4.15;3.75;;;;;;;24.99;43.67;99402.34;5035964;28;20321;-75
2022/08/05 05:24:55;;;;;;;7.68;4.30;;;;;;;25.46;43.27;99450.53;5035789;28;20029;-74
2022/08/05 05:27:21;;;;;;;4.20;3.80;;;;;;;25.16;42.81;99402.00;5033962;28;20454;-74
2022/08/05 05:29:46;;;;;;;4.70;4.20;;;;;;;25.47;42.61;99451.34;5034168;28;20029;-75
2022/08/05 05:32:11;;;;;;;5.10;4.60;;;;;;;25.57;42.42;99459.41;5034014;28;20112;-75
2022/08/05 05:34:37;;;;;;;6.25;4.55;;;;;;;25.62;42.30;99451.25;5033934;28;20029;-74
2022/08/05 05:37:02;;;;;;;6.50;4.65;;;;;;;25.64;42.33;99449.09;5033783;28;20029;-74
2022/08/05 05:39:28;;;;;;;6.60;4.28;;;;;;;25.58;42.54;99442.09;5031316;28;20059;-74
2022/08/05 05:41:53;;;;;;;7.00;4.43;;;;;;;25.32;42.17;99406.28;5035330;28;20082;-75
2022/08/05 05:44:18;;;;;;;8.27;4.18;;;;;;;25.68;42.37;99458.28;5037788;28;20040;-75
2022/08/05 05:46:44;;;;;;;7.38;4.93;;;;;;;25.20;42.22;99381.44;5036185;28;20017;-75
2022/08/05 05:49:09;;;;;;;6.97;4.70;;;;;;;25.66;42.14;99444.22;5033738;28;20025;-75
2022/08/05 05:51:34;;;;;;;6.22;5.25;;;;;;;25.61;41.88;99436.13;5033439;28;20414;-75
2022/08/05 05:54:00;;;;;;;6.05;4.63;;;;;;;25.62;42.21;99422.31;5032286;28;20055;-75
2022/08/05 05:56:29;;;;;;;6.68;5.53;;;;;;;25.54;42.15;99403.19;5032947;28;20417;-75
2022/08/05 05:58:55;;;;;;;7.03;4.82;;;;;;;25.99;42.36;99450.78;5028609;28;20026;-75
2022/08/05 06:01:20;;;;;;;5.93;5.28;;;;;;;26.04;42.46;99449.97;5013618;28;20497;-74
2022/08/05 06:03:46;;;;;;;8.95;5.15;;;;;;;26.04;42.74;99439.94;5024626;28;20028;-75
2022/08/05 06:06:11;;;;;;;4.93;4.43;;;;;;;26.19;42.41;99456.06;5030101;28;20563;-75
2022/08/05 06:08:36;;;;;;;5.70;5.20;;;;;;;25.83;42.50;99395.97;5031730;28;20510;-74
2022/08/05 06:11:02;;;;;;;7.72;5.35;;;;;;;26.23;42.87;99443.59;5032720;28;20421;-74
2022/08/05 06:13:27;;;;;;;7.30;5.15;;;;;;;26.28;42.70;99450.84;5035190;28;20061;-74
2022/08/05 06:15:53;;;;;;;5.72;5.20;;;;;;;25.88;42.95;99379.72;5022919;28;20418;-74
2022/08/05 06:18:18;;;;;;;9.15;5.38;;;;;;;26.36;42.64;99447.56;5025398;28;20053;-74
2022/08/05 06:20:43;;;;;;;7.00;5.30;;;;;;;26.13;42.86;99411.19;5031801;28;20108;-76
2022/08/05 06:23:09;;;;;;;7.32;5.38;;;;;;;26.30;42.64;99421.59;5032095;28;20018;-76
2022/08/05 06:25:34;;;;;;;6.40;5.22;;;;;;;26.42;42.56;99432.91;5032381;28;20075;-74
2022/08/05 06:27:59;;;;;;;7.70;5.45;;;;;;;26.68;42.07;99465.94;5032105;28;20143;-74
2022/08/05 06:30:26;;;;;;;6.05;5.45;;;;;;;26.74;41.97;99464.00;5032242;28;20021;-74
2022/08/05 06:32:52;;;;;;;6.55;5.13;;;;;;;26.85;41.67;99465.53;5030137;28;20072;-74
2022/08/05 06:35:18;;;;;;;7.43;5.50;;;;;;;26.68;41.28;99422.63;5031580;28;20029;-75
2022/08/05 06:37:44;;;;;;;6.22;5.13;;;;;;;26.96;41.06;99472.47;5026257;28;20049;-75
2022/08/05 06:40:10;;;;;;;5.78;4.85;;;;;;;27.00;40.60;99464.59;5030630;28;21171;-74
2022/08/05 06:42:36;;;;;;;5.45;4.95;;;;;;;27.01;40.28;99479.75;5032320;28;20018;-77
2022/08/05 06:45:02;;;;;;;8.75;6.45;;;;;;;27.00;40.07;99470.03;5028866;28;20095;-77
2022/08/05 06:47:28;;;;;;;6.07;5.15;;;;;;;27.01;39.65;99468.94;5030451;28;20033;-77
2022/08/05 06:49:53;;;;;;;6.70;5.20;;;;;;;26.64;39.57;99396.41;5030404;28;20021;-76
2022/08/05 06:52:19;;;;;;;6.82;6.03;;;;;;;27.11;39.50;99475.03;5035263;28;20518;-75
2022/08/05 06:54:44;;;;;;;9.75;8.02;;;;;;;26.83;39.35;99417.06;5029619;28;20109;-74
2022/08/05 06:57:13;;;;;;;6.63;6.03;;;;;;;27.16;39.04;99453.31;5030483;28;20029;-77
2022/08/05 06:59:39;;;;;;;6.55;5.95;;;;;;;27.18;38.69;99458.44;5027925;28;20042;-77
2022/08/05 07:02:04;;;;;;;6.60;5.65;;;;;;;27.37;38.48;99463.88;5035410;28;20018;-76
2022/08/05 07:04:30;;;;;;;6.03;5.18;;;;;;;27.54;38.31;99477.81;5030767;28;20037;-76
2022/08/05 07:06:55;;;;;;;5.78;5.25;;;;;;;27.55;38.10;99471.28;5032016;28;20464;-77
2022/08/05 07:09:20;;;;;;;6.05;4.90;;;;;;;27.56;37.71;99447.69;5030857;28;20057;-77
2022/08/05 07:11:46;;;;;;;5.90;5.10;;;;;;;27.35;37.76;99399.09;5030023;28;20102;-76
2022/08/05 07:16:59;;;;;;;6.68;5.18;;;;;;;27.56;37.61;99418.66;5031733;28;20060;-76
2022/08/05 07:19:26;;;;;;;6.75;5.30;;;;;;;27.99;37.63;99470.16;5031554;28;20478;-76
2022/08/05 07:21:51;;;;;;;5.63;4.85;;;;;;;28.05;37.70;99475.19;5029552;28;20017;-77
2022/08/05 07:24:17;;;;;;;7.55;4.85;;;;;;;27.75;37.31;99414.06;5028871;28;20033;-74
2022/08/05 07:26:44;;;;;;;6.00;5.10;;;;;;;28.03;37.14;99455.69;5026473;28;20032;-77
2022/08/05 07:29:10;;;;;;;5.78;4.93;;;;;;;28.23;36.92;99476.31;5025113;28;20017;-74
2022/08/05 07:31:35;;;;;;;6.35;5.75;;;;;;;28.29;37.04;99479.78;5031455;28;20104;-75
2022/08/05 07:34:01;;;;;;;5.25;4.80;;;;;;;27.99;37.02;99426.72;5031636;28;20028;-75
2022/08/05 07:36:27;;;;;;;7.07;5.60;;;;;;;28.17;36.88;99453.84;5031363;28;20033;-75
2022/08/05 07:38:53;;;;;;;4.68;4.28;;;;;;;28.45;36.98;99473.00;5029216;28;20030;-77
2022/08/05 07:41:20;;;;;;;5.25;4.72;;;;;;;28.16;36.85;99430.50;5031268;28;20033;-75
2022/08/05 07:43:46;;;;;;;5.10;4.47;;;;;;;28.48;37.02;99454.19;5031217;28;20458;-75
2022/08/05 07:46:11;;;;;;;5.82;4.70;;;;;;;28.42;36.58;99427.41;5030888;28;20136;-75
2022/08/05 07:48:37;;;;;;;4.72;4.07;;;;;;;28.61;36.48;99444.47;5026402;28;20483;-75
2022/08/05 07:51:02;;;;;;;6.30;5.40;;;;;;;28.73;36.47;99463.00;5029845;28;20025;-75
2022/08/05 07:53:28;;;;;;;4.85;4.03;;;;;;;28.82;36.20;99460.38;5030577;28;20030;-75
2022/08/05 07:55:53;;;;;;;8.63;4.63;;;;;;;28.60;36.29;99417.59;5029637;28;20036;-75
2022/08/05 07:58:19;;;;;;;6.20;5.13;;;;;;;29.03;36.37;99470.63;5030221;28;20029;-74
2022/08/05 08:00:45;;;;;;;4.97;4.47;;;;;;;28.77;36.30;99415.91;5030898;28;20116;-75
2022/08/05 08:03:11;;;;;;;6.75;3.63;;;;;;;29.21;36.12;99455.31;5030867;28;20049;-75
2022/08/05 08:05:42;;;;;;;4.70;4.30;;;;;;;29.29;35.66;99453.81;5027897;28;20025;-75
2022/08/05 08:08:09;;;;;;;4.55;4.07;;;;;;;28.92;35.91;99376.78;5027952;28;20021;-74
2022/08/05 08:10:34;;;;;;;9.65;8.85;;;;;;;29.13;35.64;99395.41;5029695;28;20041;-75
2022/08/05 08:12:59;;;;;;;6.03;4.80;;;;;;;29.28;35.48;99400.53;5030465;28;20352;-75
2022/08/05 08:15:25;;;;;;;5.18;4.65;;;;;;;29.71;35.13;99453.44;5021135;28;20500;-75
2022/08/05 08:17:50;;;;;;;5.95;3.72;;;;;;;29.76;35.26;99447.13;5028248;28;20099;-75
2022/08/05 08:20:16;;;;;;;5.13;4.00;;;;;;;29.90;35.09;99453.31;5029284;28;20021;-75
2022/08/05 08:22:41;;;;;;;4.88;4.40;;;;;;;29.69;34.82;99397.72;5029852;28;20048;-75
2022/08/05 08:25:07;;;;;;;4.72;4.20;;;;;;;29.80;34.79;99398.31;5029237;28;20100;-77
2022/08/05 08:27:33;;;;;;;6.07;3.50;;;;;;;30.25;34.13;99448.16;5029692;28;20064;-75
2022/08/05 08:29:58;;;;;;;5.15;4.65;;;;;;;30.15;34.50;99413.81;5030418;28;20053;-75
2022/08/05 08:32:24;;;;;;;9.13;8.00;;;;;;;30.07;34.29;99390.06;5030520;28;20028;-75
2022/08/05 08:34:49;;;;;;;4.97;4.18;;;;;;;30.51;34.14;99451.06;5029322;28;20021;-75
2022/08/05 08:37:16;;;;;;;5.47;4.07;;;;;;;30.58;33.72;99438.63;5019130;28;20026;-75
2022/08/05 08:39:42;;;;;;;5.18;3.70;;;;;;;30.35;33.25;99396.94;5025214;28;20052;-74
2022/08/05 08:42:08;;;;;;;5.45;4.93;;;;;;;30.63;33.40;99424.06;5030536;28;20483;-75
2022/08/05 08:44:35;;;;;;;5.20;3.75;;;;;;;30.55;33.19;99395.63;5030047;28;20490;-75
2022/08/05 08:47:06;;;;;;;5.32;4.15;;;;;;;30.60;32.71;99381.91;5029880;28;20021;-75
2022/08/05 08:49:34;;;;;;;5.95;4.60;;;;;;;30.97;32.49;99415.22;5030126;28;20030;-75
2022/08/05 08:52:11;;;;;;;5.03;3.75;;;;;;;31.18;32.00;99435.38;5029062;28;20036;-77
2022/08/05 08:54:37;;;;;;;7.38;4.40;;;;;;;31.22;32.28;99439.09;5022140;28;20022;-78
2022/08/05 08:57:06;;;;;;;3.83;3.42;;;;;;;30.81;31.96;99343.97;5029776;28;20414;-75
2022/08/05 08:59:32;;;;;;;6.68;4.15;;;;;;;31.53;31.86;99428.09;5029672;28;20410;-77
2022/08/05 09:01:58;;;;;;;5.63;5.10;;;;;;;31.73;31.53;99431.34;5032801;28;20022;-77
2022/08/05 09:04:23;;;;;;;6.43;5.85;;;;;;;31.77;31.72;99433.09;5032551;28;20476;-77
2022/08/05 09:06:49;;;;;;;5.47;4.75;;;;;;;31.93;31.42;99426.03;5032739;28;20029;-77
2022/08/05 09:09:15;;;;;;;6.10;4.15;;;;;;;32.07;31.24;99419.63;5032076;28;20066;-75
2022/08/05 09:11:40;;;;;;;7.40;4.38;;;;;;;32.05;30.71;99403.56;5018949;28;20018;-75
2022/08/05 09:14:06;;;;;;;4.18;3.45;;;;;;;31.93;30.42;99355.03;5014446;28;20030;-75
2022/08/05 09:16:32;;;;;;;10.55;9.15;;;;;;;32.33;30.46;99419.59;5026945;28;20111;-75
2022/08/05 09:18:57;;;;;;;6.45;5.82;;;;;;;32.29;30.40;99403.06;5024506;28;20430;-75
2022/08/05 09:21:23;;;;;;;5.80;4.72;;;;;;;31.84;30.87;99335.13;5029836;28;20051;-75
2022/08/05 09:24:03;;;;;;;4.68;3.70;;;;;;;31.89;30.38;99351.34;5033852;28;20029;-75
2022/08/05 09:26:29;;;;;;;9.40;5.65;;;;;;;31.59;30.83;99327.75;5032303;28;20048;-75
2022/08/05 09:28:58;;;;;;;6.15;5.18;;;;;;;31.91;30.99;99373.66;5017033;28;20030;-75
2022/08/05 09:31:24;;;;;;;6.03;5.53;;;;;;;32.02;30.92;99356.97;5027815;28;20104;-75
2022/08/05 09:33:57;;;;;;;6.47;5.28;;;;;;;32.00;30.65;99346.38;5033948;28;20526;-74
2022/08/05 09:36:23;;;;;;;5.78;4.40;;;;;;;32.55;30.17;99372.91;5033870;28;20025;-76
2022/08/05 09:39:01;;;;;;;4.47;4.07;;;;;;;33.01;29.75;99382.22;5033855;28;20021;-75
2022/08/05 09:41:26;;;;;;;8.05;6.43;;;;;;;32.94;29.74;99371.81;5033892;28;20024;-75
2022/08/05 09:43:52;;;;;;;15.45;10.63;;;;;;;32.73;29.87;99358.06;5033225;28;20021;-77
2022/08/05 09:46:29;;;;;;;7.20;6.50;;;;;;;32.50;30.18;99360.22;5014169;28;20161;-77
2022/08/05 09:48:57;;;;;;;12.90;10.95;;;;;;;32.64;30.00;99375.59;5013746;28;20036;-76
2022/08/05 09:51:31;;;;;;;8.50;6.30;;;;;;;32.22;30.08;99335.22;5033106;28;20131;-75
2022/08/05 09:53:57;;;;;;;7.93;4.97;;;;;;;32.50;30.10;99382.09;5032251;28;20041;-75
2022/08/05 09:56:28;;;;;;;3.83;3.53;;;;;;;32.90;29.37;99367.34;5032247;28;20029;-75
2022/08/05 09:59:06;;;;;;;7.93;5.55;;;;;;;33.40;29.09;99368.16;5029882;28;20025;-77
2022/08/05 10:01:35;;;;;;;5.30;3.08;;;;;;;33.65;27.98;99340.91;5027695;28;20021;-75
2022/08/05 10:04:09;;;;;;;5.90;4.75;;;;;;;34.06;27.88;99356.50;5027982;28;20565;-76
2022/08/05 10:06:35;;;;;;;10.48;4.78;;;;;;;34.29;27.28;99352.22;5028832;28;20032;-77
2022/08/05 10:09:20;;;;;;;4.03;2.70;;;;;;;34.53;25.76;99339.72;5025816;28;20029;-76
2022/08/05 10:11:46;;;;;;;4.45;3.58;;;;;;;34.64;26.34;99316.97;5025553;28;20064;-77
2022/08/05 10:14:25;;;;;;;4.82;4.20;;;;;;;35.06;26.35;99332.41;5029527;28;20414;-77
2022/08/05 10:16:55;;;;;;;6.30;3.20;;;;;;;35.15;25.38;99336.63;5033490;28;20073;-77
2022/08/05 10:19:22;;;;;;;3.15;2.85;;;;;;;35.29;25.02;99312.34;5029231;28;20449;-76
2022/08/05 10:21:48;;;;;;;3.88;3.15;;;;;;;35.66;24.64;99345.19;5031690;28;20555;-76
2022/08/05 10:24:18;;;;;;;5.45;2.67;;;;;;;35.85;24.44;99328.09;5031655;28;20021;-76
2022/08/05 10:26:46;;;;;;;4.43;2.90;;;;;;;35.64;24.19;99279.63;5027747;28;20059;-76
2022/08/05 10:29:12;;;;;;;4.47;3.00;;;;;;;35.92;23.90;99312.59;5025893;28;20458;-76
2022/08/05 10:31:38;;;;;;;3.45;2.72;;;;;;;35.63;23.99;99245.06;5029393;28;20068;-76
2022/08/05 10:34:06;;;;;;;4.00;2.42;;;;;;;36.01;23.78;99325.38;5022639;28;20053;-77
2022/08/05 10:36:32;;;;;;;3.20;2.90;;;;;;;35.30;24.20;99296.69;5030197;28;20029;-77
2022/08/05 10:39:20;;;;;;;3.88;2.40;;;;;;;35.10;24.58;99320.41;5032635;28;20025;-75
2022/08/05 10:42:02;;;;;;;3.67;2.75;;;;;;;34.65;25.10;99326.81;5028059;28;20021;-76
2022/08/05 10:44:30;;;;;;;2.97;2.70;;;;;;;34.01;25.44;99266.31;5025424;28;20021;-75
2022/08/05 10:46:55;;;;;;;5.35;3.85;;;;;;;34.16;25.69;99316.91;5029165;28;20056;-75
2022/08/05 10:49:23;;;;;;;3.92;3.63;;;;;;;34.14;25.99;99321.91;5031794;28;20382;-75
2022/08/05 10:51:58;;;;;;;3.78;3.25;;;;;;;34.64;25.39;99319.72;5031761;28;20025;-76
2022/08/05 10:54:47;;;;;;;3.38;2.70;;;;;;;35.26;24.79;99312.25;5031418;28;20036;-75
2022/08/05 10:57:24;;;;;;;4.88;4.00;;;;;;;35.66;24.46;99307.53;5026763;28;20029;-75
2022/08/05 11:00:08;;;;;;;3.72;3.08;;;;;;;36.01;23.27;99297.91;5026933;28;20511;-75
2022/08/05 11:02:34;;;;;;;5.40;4.90;;;;;;;36.14;23.75;99274.69;5030401;28;20064;-76
2022/08/05 11:05:07;;;;;;;5.45;4.95;;;;;;;36.64;23.20;99292.41;5029929;28;20116;-76
2022/08/05 11:07:33;;;;;;;4.22;2.83;;;;;;;36.63;23.25;99299.09;5028384;28;20040;-76
2022/08/05 11:10:01;;;;;;;2.95;2.75;;;;;;;36.83;23.02;99287.78;5026122;28;20029;-76
2022/08/05 11:12:35;;;;;;;4.55;2.72;;;;;;;37.17;22.58;99279.88;5027214;28;20043;-76
2022/08/05 11:15:17;;;;;;;3.53;2.50;;;;;;;37.45;22.35;99286.00;5030667;28;20036;-75
2022/08/05 11:17:50;;;;;;;3.10;2.80;;;;;;;37.80;21.56;99276.84;5028309;28;20053;-76
2022/08/05 11:20:37;;;;;;;5.40;4.32;;;;;;;37.73;22.34;99272.00;5030265;28;20026;-76
2022/08/05 11:23:25;;;;;;;5.90;4.93;;;;;;;37.54;21.99;99272.00;5030619;28;20055;-75
2022/08/05 11:26:18;;;;;;;3.78;3.35;;;;;;;37.75;21.89;99274.38;5025668;28;20051;-76
2022/08/05 11:28:54;;;;;;;2.80;2.60;;;;;;;37.78;20.91;99241.38;5011957;28;20025;-75
2022/08/05 11:31:22;;;;;;;2.20;2.00;;;;;;;37.96;21.31;99235.41;5011974;28;20033;-75
2022/08/05 11:33:48;;;;;;;6.40;3.13;;;;;;;38.04;21.18;99271.00;5010621;28;20025;-76
2022/08/05 11:36:16;;;;;;;4.38;2.80;;;;;;;37.92;21.82;99271.19;5024635;28;20033;-75
2022/08/05 11:38:42;;;;;;;4.13;3.42;;;;;;;38.08;21.16;99268.28;5029594;28;20029;-76
2022/08/05 11:41:27;;;;;;;2.47;2.28;;;;;;;37.95;20.53;99193.25;5031019;28;20033;-75